sensor_id;sensor_type;location;lat;lon;timestamp;P1;P2;P0
44871;PMS7003;30602;51.060;17.226;2022-12-18T00:00:40;25;19;11
44871;PMS7003;30602;51.060;17.226;2022-12-18T00:03:52;35;26;15
44871;PMS7003;30602;51.060;17.226;2022-12-18T00:07:39;41;29;19
44871;PMS7003;30602;51.060;17.226;2022-12-18T00:10:52;32;24;15
44871;PMS7003;30602;51.060;17.226;2022-12-18T00:14:11;36;26;17
44871;PMS7003;30602;51.060;17.226;2022-12-18T00:17:36;36;29;17
44871;PMS7003;30602;51.060;17.226;2022-12-18T00:20:57;45;34;22
44871;PMS7003;30602;51.060;17.226;2022-12-18T00:24:45;42;32;17
44871;PMS7003;30602;51.060;17.226;2022-12-18T00:27:58;56;41;25
44871;PMS7003;30602;51.060;17.226;2022-12-18T00:31:18;46;34;20
44871;PMS7003;30602;51.060;17.226;2022-12-18T00:34:46;36;27;16
44871;PMS7003;30602;51.060;17.226;2022-12-18T00:38:19;37;26;16
44871;PMS7003;30602;51.060;17.226;2022-12-18T00:41:55;46;33;18
44871;PMS7003;30602;51.060;17.226;2022-12-18T00:45:16;22;19;13
44871;PMS7003;30602;51.060;17.226;2022-12-18T00:48:47;28;20;12
44871;PMS7003;30602;51.060;17.226;2022-12-18T00:52:10;21;17;11
44871;PMS7003;30602;51.060;17.226;2022-12-18T00:55:18;25;18;12
44871;PMS7003;30602;51.060;17.226;2022-12-18T00:58:57;23;16;10
44871;PMS7003;30602;51.060;17.226;2022-12-18T01:02:42;48;32;18
44871;PMS7003;30602;51.060;17.226;2022-12-18T01:06:27;38;33;19
44871;PMS7003;30602;51.060;17.226;2022-12-18T01:10:29;41;31;19
44871;PMS7003;30602;51.060;17.226;2022-12-18T01:14:04;33;24;17
44871;PMS7003;30602;51.060;17.226;2022-12-18T01:17:14;39;29;19
44871;PMS7003;30602;51.060;17.226;2022-12-18T01:21:06;35;23;16
44871;PMS7003;30602;51.060;17.226;2022-12-18T01:24:39;35;23;13
44871;PMS7003;30602;51.060;17.226;2022-12-18T01:27:53;28;22;14
44871;PMS7003;30602;51.060;17.226;2022-12-18T01:31:20;58;39;24
44871;PMS7003;30602;51.060;17.226;2022-12-18T01:34:29;31;26;16
44871;PMS7003;30602;51.060;17.226;2022-12-18T01:37:40;37;27;15
44871;PMS7003;30602;51.060;17.226;2022-12-18T01:40:56;22;19;14
44871;PMS7003;30602;51.060;17.226;2022-12-18T01:48:37;24;17;11
44871;PMS7003;30602;51.060;17.226;2022-12-18T01:52:48;36;22;13
44871;PMS7003;30602;51.060;17.226;2022-12-18T01:56:33;24;18;13
44871;PMS7003;30602;51.060;17.226;2022-12-18T01:59:47;41;31;18
44871;PMS7003;30602;51.060;17.226;2022-12-18T02:03:19;29;25;16
44871;PMS7003;30602;51.060;17.226;2022-12-18T02:07:04;33;25;15
44871;PMS7003;30602;51.060;17.226;2022-12-18T02:14:04;25;22;16
44871;PMS7003;30602;51.060;17.226;2022-12-18T02:17:41;23;20;14
44871;PMS7003;30602;51.060;17.226;2022-12-18T02:21:46;35;22;15
44871;PMS7003;30602;51.060;17.226;2022-12-18T02:29:10;27;23;16
44871;PMS7003;30602;51.060;17.226;2022-12-18T02:32:49;25;22;14
44871;PMS7003;30602;51.060;17.226;2022-12-18T02:36:24;33;26;16
44871;PMS7003;30602;51.060;17.226;2022-12-18T02:39:59;30;22;13
44871;PMS7003;30602;51.060;17.226;2022-12-18T02:43:31;37;25;16
44871;PMS7003;30602;51.060;17.226;2022-12-18T02:47:08;30;22;13
44871;PMS7003;30602;51.060;17.226;2022-12-18T02:50:26;32;28;16
44871;PMS7003;30602;51.060;17.226;2022-12-18T02:57:56;29;25;15
44871;PMS7003;30602;51.060;17.226;2022-12-18T03:01:54;29;23;16
44871;PMS7003;30602;51.060;17.226;2022-12-18T03:04:55;32;24;15
44871;PMS7003;30602;51.060;17.226;2022-12-18T03:08:27;36;30;16
44871;PMS7003;30602;51.060;17.226;2022-12-18T03:11:37;25;19;13
44871;PMS7003;30602;51.060;17.226;2022-12-18T03:15:30;33;25;14
44871;PMS7003;30602;51.060;17.226;2022-12-18T03:26:23;22;16;12
44871;PMS7003;30602;51.060;17.226;2022-12-18T03:30:03;18;14;10
44871;PMS7003;30602;51.060;17.226;2022-12-18T03:33:40;43;35;21
44871;PMS7003;30602;51.060;17.226;2022-12-18T03:37:26;79;56;31
44871;PMS7003;30602;51.060;17.226;2022-12-18T03:44:56;37;28;15
44871;PMS7003;30602;51.060;17.226;2022-12-18T03:48:31;29;22;15
44871;PMS7003;30602;51.060;17.226;2022-12-18T03:51:56;42;32;19
44871;PMS7003;30602;51.060;17.226;2022-12-18T03:55:12;41;35;19
44871;PMS7003;30602;51.060;17.226;2022-12-18T03:59:01;55;42;25
44871;PMS7003;30602;51.060;17.226;2022-12-18T04:02:29;32;24;14
44871;PMS7003;30602;51.060;17.226;2022-12-18T04:06:13;21;18;14
44871;PMS7003;30602;51.060;17.226;2022-12-18T04:09:44;27;16;9
44871;PMS7003;30602;51.060;17.226;2022-12-18T04:13:34;26;21;15
44871;PMS7003;30602;51.060;17.226;2022-12-18T04:17:36;19;16;11
44871;PMS7003;30602;51.060;17.226;2022-12-18T04:21:03;28;19;12
44871;PMS7003;30602;51.060;17.226;2022-12-18T04:24:34;20;16;12
44871;PMS7003;30602;51.060;17.226;2022-12-18T04:28:14;33;25;12
44871;PMS7003;30602;51.060;17.226;2022-12-18T04:31:59;25;21;12
44871;PMS7003;30602;51.060;17.226;2022-12-18T04:35:33;26;19;13
44871;PMS7003;30602;51.060;17.226;2022-12-18T04:39:06;20;15;11
44871;PMS7003;30602;51.060;17.226;2022-12-18T04:42:15;21;13;8
44871;PMS7003;30602;51.060;17.226;2022-12-18T04:49:16;22;16;11
44871;PMS7003;30602;51.060;17.226;2022-12-18T04:52:50;20;15;11
44871;PMS7003;30602;51.060;17.226;2022-12-18T04:56:26;25;21;12
44871;PMS7003;30602;51.060;17.226;2022-12-18T04:59:56;33;24;15
44871;PMS7003;30602;51.060;17.226;2022-12-18T05:03:16;30;25;16
44871;PMS7003;30602;51.060;17.226;2022-12-18T05:06:45;29;24;15
44871;PMS7003;30602;51.060;17.226;2022-12-18T05:09:57;24;14;11
44871;PMS7003;30602;51.060;17.226;2022-12-18T05:13:34;24;17;10
44871;PMS7003;30602;51.060;17.226;2022-12-18T05:17:28;27;21;14
44871;PMS7003;30602;51.060;17.226;2022-12-18T05:20:36;27;22;14
44871;PMS7003;30602;51.060;17.226;2022-12-18T05:23:57;41;33;18
44871;PMS7003;30602;51.060;17.226;2022-12-18T05:27:30;29;22;15
44871;PMS7003;30602;51.060;17.226;2022-12-18T05:31:18;21;18;12
44871;PMS7003;30602;51.060;17.226;2022-12-18T05:34:32;29;19;11
44871;PMS7003;30602;51.060;17.226;2022-12-18T05:37:42;22;16;11
44871;PMS7003;30602;51.060;17.226;2022-12-18T05:41:04;26;17;12
44871;PMS7003;30602;51.060;17.226;2022-12-18T05:44:56;21;14;11
44871;PMS7003;30602;51.060;17.226;2022-12-18T05:48:38;21;18;13
44871;PMS7003;30602;51.060;17.226;2022-12-18T05:52:19;24;18;10
44871;PMS7003;30602;51.060;17.226;2022-12-18T05:55:48;25;20;15
44871;PMS7003;30602;51.060;17.226;2022-12-18T05:59:08;26;19;13
44871;PMS7003;30602;51.060;17.226;2022-12-18T06:02:19;24;20;14
44871;PMS7003;30602;51.060;17.226;2022-12-18T06:05:37;28;22;13
44871;PMS7003;30602;51.060;17.226;2022-12-18T06:09:23;31;20;13
44871;PMS7003;30602;51.060;17.226;2022-12-18T06:12:45;31;24;14
44871;PMS7003;30602;51.060;17.226;2022-12-18T06:19:56;45;29;15
44871;PMS7003;30602;51.060;17.226;2022-12-18T06:23:06;33;26;16
44871;PMS7003;30602;51.060;17.226;2022-12-18T06:26:20;42;30;16
44871;PMS7003;30602;51.060;17.226;2022-12-18T06:29:28;31;24;16
44871;PMS7003;30602;51.060;17.226;2022-12-18T06:33:00;33;27;16
44871;PMS7003;30602;51.060;17.226;2022-12-18T06:36:42;31;22;15
44871;PMS7003;30602;51.060;17.226;2022-12-18T06:40:10;38;29;15
44871;PMS7003;30602;51.060;17.226;2022-12-18T06:43:46;36;28;17
44871;PMS7003;30602;51.060;17.226;2022-12-18T06:47:19;42;31;18
44871;PMS7003;30602;51.060;17.226;2022-12-18T06:50:32;36;30;18
44871;PMS7003;30602;51.060;17.226;2022-12-18T06:54:02;33;25;15
44871;PMS7003;30602;51.060;17.226;2022-12-18T06:57:47;32;26;16
44871;PMS7003;30602;51.060;17.226;2022-12-18T07:01:21;34;24;14
44871;PMS7003;30602;51.060;17.226;2022-12-18T07:04:50;39;30;17
44871;PMS7003;30602;51.060;17.226;2022-12-18T07:08:02;33;26;15
44871;PMS7003;30602;51.060;17.226;2022-12-18T07:11:32;31;23;15
44871;PMS7003;30602;51.060;17.226;2022-12-18T07:15:11;35;30;17
44871;PMS7003;30602;51.060;17.226;2022-12-18T07:22:34;43;30;17
44871;PMS7003;30602;51.060;17.226;2022-12-18T07:26:12;39;29;17
44871;PMS7003;30602;51.060;17.226;2022-12-18T07:30:06;34;25;14
44871;PMS7003;30602;51.060;17.226;2022-12-18T07:34:13;33;25;17
44871;PMS7003;30602;51.060;17.226;2022-12-18T07:37:49;37;28;17
44871;PMS7003;30602;51.060;17.226;2022-12-18T07:41:16;32;25;16
44871;PMS7003;30602;51.060;17.226;2022-12-18T07:44:48;19;17;12
44871;PMS7003;30602;51.060;17.226;2022-12-18T07:47:59;31;23;17
44871;PMS7003;30602;51.060;17.226;2022-12-18T07:51:31;30;23;15
44871;PMS7003;30602;51.060;17.226;2022-12-18T07:54:43;37;29;18
44871;PMS7003;30602;51.060;17.226;2022-12-18T07:58:39;33;25;16
44871;PMS7003;30602;51.060;17.226;2022-12-18T08:02:29;40;30;17
44871;PMS7003;30602;51.060;17.226;2022-12-18T08:09:52;38;30;19
44871;PMS7003;30602;51.060;17.226;2022-12-18T08:13:02;31;25;15
44871;PMS7003;30602;51.060;17.226;2022-12-18T08:16:31;28;22;16
44871;PMS7003;30602;51.060;17.226;2022-12-18T08:19:46;40;30;16
44871;PMS7003;30602;51.060;17.226;2022-12-18T08:23:50;37;31;18
44871;PMS7003;30602;51.060;17.226;2022-12-18T08:27:07;36;30;17
44871;PMS7003;30602;51.060;17.226;2022-12-18T08:30:38;26;24;14
44871;PMS7003;30602;51.060;17.226;2022-12-18T08:33:49;29;22;14
44871;PMS7003;30602;51.060;17.226;2022-12-18T08:37:21;28;23;13
44871;PMS7003;30602;51.060;17.226;2022-12-18T08:40:35;32;26;14
44871;PMS7003;30602;51.060;17.226;2022-12-18T08:43:53;29;24;15
44871;PMS7003;30602;51.060;17.226;2022-12-18T08:47:14;27;25;17
44871;PMS7003;30602;51.060;17.226;2022-12-18T08:50:23;28;21;14
44871;PMS7003;30602;51.060;17.226;2022-12-18T08:53:56;30;22;14
44871;PMS7003;30602;51.060;17.226;2022-12-18T08:57:48;34;30;17
44871;PMS7003;30602;51.060;17.226;2022-12-18T09:01:41;34;27;15
44871;PMS7003;30602;51.060;17.226;2022-12-18T09:05:16;38;31;17
44871;PMS7003;30602;51.060;17.226;2022-12-18T09:08:59;31;25;16
44871;PMS7003;30602;51.060;17.226;2022-12-18T09:12:25;32;24;14
44871;PMS7003;30602;51.060;17.226;2022-12-18T09:15:39;30;24;17
44871;PMS7003;30602;51.060;17.226;2022-12-18T09:19:36;34;24;14
44871;PMS7003;30602;51.060;17.226;2022-12-18T09:22:48;26;19;13
44871;PMS7003;30602;51.060;17.226;2022-12-18T09:26:18;29;23;15
44871;PMS7003;30602;51.060;17.226;2022-12-18T09:30:02;24;21;14
44871;PMS7003;30602;51.060;17.226;2022-12-18T09:33:35;29;21;13
44871;PMS7003;30602;51.060;17.226;2022-12-18T09:37:30;34;27;16
44871;PMS7003;30602;51.060;17.226;2022-12-18T09:41:00;30;20;14
44871;PMS7003;30602;51.060;17.226;2022-12-18T09:47:36;28;20;14
44871;PMS7003;30602;51.060;17.226;2022-12-18T09:51:12;33;28;15
44871;PMS7003;30602;51.060;17.226;2022-12-18T10:02:15;38;31;16
44871;PMS7003;30602;51.060;17.226;2022-12-18T10:08:58;35;29;16
44871;PMS7003;30602;51.060;17.226;2022-12-18T10:27:42;70;49;27
44871;PMS7003;30602;51.060;17.226;2022-12-18T10:31:01;39;31;19
44871;PMS7003;30602;51.060;17.226;2022-12-18T10:34:44;58;43;24
44871;PMS7003;30602;51.060;17.226;2022-12-18T10:42:13;37;29;18
44871;PMS7003;30602;51.060;17.226;2022-12-18T10:49:19;39;28;20
44871;PMS7003;30602;51.060;17.226;2022-12-18T10:53:23;42;34;20
44871;PMS7003;30602;51.060;17.226;2022-12-18T11:01:22;63;47;30
44871;PMS7003;30602;51.060;17.226;2022-12-18T11:04:57;47;41;26
44871;PMS7003;30602;51.060;17.226;2022-12-18T11:08:27;45;32;21
44871;PMS7003;30602;51.060;17.226;2022-12-18T11:12:04;45;35;19
44871;PMS7003;30602;51.060;17.226;2022-12-18T11:15:49;43;31;19
44871;PMS7003;30602;51.060;17.226;2022-12-18T11:23:43;47;35;21
44871;PMS7003;30602;51.060;17.226;2022-12-18T11:27:33;58;41;26
44871;PMS7003;30602;51.060;17.226;2022-12-18T11:34:38;46;34;19
44871;PMS7003;30602;51.060;17.226;2022-12-18T11:38:02;54;38;20
44871;PMS7003;30602;51.060;17.226;2022-12-18T11:41:54;44;35;20
44871;PMS7003;30602;51.060;17.226;2022-12-18T11:46:32;45;34;18
44871;PMS7003;30602;51.060;17.226;2022-12-18T11:49:59;37;29;19
44871;PMS7003;30602;51.060;17.226;2022-12-18T11:53:43;39;32;20
44871;PMS7003;30602;51.060;17.226;2022-12-18T12:05:08;38;30;18
44871;PMS7003;30602;51.060;17.226;2022-12-18T12:09:20;36;29;18
44871;PMS7003;30602;51.060;17.226;2022-12-18T12:39:31;73;54;33
44871;PMS7003;30602;51.060;17.226;2022-12-18T12:51:40;39;33;21
44871;PMS7003;30602;51.060;17.226;2022-12-18T12:54:59;34;28;17
44871;PMS7003;30602;51.060;17.226;2022-12-18T12:58:28;47;33;18
44871;PMS7003;30602;51.060;17.226;2022-12-18T13:09:33;53;42;24
44871;PMS7003;30602;51.060;17.226;2022-12-18T13:13:18;53;44;26
44871;PMS7003;30602;51.060;17.226;2022-12-18T13:21:01;85;62;36
44871;PMS7003;30602;51.060;17.226;2022-12-18T13:24:30;111;82;45
44871;PMS7003;30602;51.060;17.226;2022-12-18T13:36:29;72;52;30
44871;PMS7003;30602;51.060;17.226;2022-12-18T13:44:52;82;62;38
44871;PMS7003;30602;51.060;17.226;2022-12-18T13:48:31;41;32;18
44871;PMS7003;30602;51.060;17.226;2022-12-18T13:52:02;46;37;20
44871;PMS7003;30602;51.060;17.226;2022-12-18T13:55:32;50;42;26
44871;PMS7003;30602;51.060;17.226;2022-12-18T13:59:44;52;39;22
44871;PMS7003;30602;51.060;17.226;2022-12-18T14:04:18;44;34;17
44871;PMS7003;30602;51.060;17.226;2022-12-18T14:07:38;56;41;23
44871;PMS7003;30602;51.060;17.226;2022-12-18T14:18:57;48;40;25
44871;PMS7003;30602;51.060;17.226;2022-12-18T14:22:50;71;47;28
44871;PMS7003;30602;51.060;17.226;2022-12-18T14:25:56;107;82;45
44871;PMS7003;30602;51.060;17.226;2022-12-18T14:29:36;101;77;43
44871;PMS7003;30602;51.060;17.226;2022-12-18T14:33:42;116;91;48
44871;PMS7003;30602;51.060;17.226;2022-12-18T14:37:40;93;69;44
44871;PMS7003;30602;51.060;17.226;2022-12-18T14:42:02;84;61;37
44871;PMS7003;30602;51.060;17.226;2022-12-18T14:49:59;73;56;35
44871;PMS7003;30602;51.060;17.226;2022-12-18T14:57:20;78;58;35
44871;PMS7003;30602;51.060;17.226;2022-12-18T15:04:44;74;54;32
44871;PMS7003;30602;51.060;17.226;2022-12-18T15:07:55;57;44;28
44871;PMS7003;30602;51.060;17.226;2022-12-18T15:11:44;62;43;26
44871;PMS7003;30602;51.060;17.226;2022-12-18T15:19:40;67;48;27
44871;PMS7003;30602;51.060;17.226;2022-12-18T15:22:52;50;41;27
44871;PMS7003;30602;51.060;17.226;2022-12-18T15:26:38;55;39;24
44871;PMS7003;30602;51.060;17.226;2022-12-18T15:30:57;55;43;26
44871;PMS7003;30602;51.060;17.226;2022-12-18T15:34:22;59;42;25
44871;PMS7003;30602;51.060;17.226;2022-12-18T15:38:11;56;40;25
44871;PMS7003;30602;51.060;17.226;2022-12-18T15:46:07;68;49;29
44871;PMS7003;30602;51.060;17.226;2022-12-18T15:50:03;60;45;27
44871;PMS7003;30602;51.060;17.226;2022-12-18T15:53:41;48;39;23
44871;PMS7003;30602;51.060;17.226;2022-12-18T15:56:53;61;46;30
44871;PMS7003;30602;51.060;17.226;2022-12-18T16:01:05;65;48;29
44871;PMS7003;30602;51.060;17.226;2022-12-18T16:04:21;64;50;29
44871;PMS7003;30602;51.060;17.226;2022-12-18T16:08:05;56;43;27
44871;PMS7003;30602;51.060;17.226;2022-12-18T16:11:23;66;49;29
44871;PMS7003;30602;51.060;17.226;2022-12-18T16:14:46;64;50;31
44871;PMS7003;30602;51.060;17.226;2022-12-18T16:17:56;59;48;32
44871;PMS7003;30602;51.060;17.226;2022-12-18T16:21:07;72;53;31
44871;PMS7003;30602;51.060;17.226;2022-12-18T16:24:20;67;48;29
44871;PMS7003;30602;51.060;17.226;2022-12-18T16:27:50;53;39;27
44871;PMS7003;30602;51.060;17.226;2022-12-18T16:31:54;80;56;34
44871;PMS7003;30602;51.060;17.226;2022-12-18T16:35:30;78;59;38
44871;PMS7003;30602;51.060;17.226;2022-12-18T16:39:17;84;62;38
44871;PMS7003;30602;51.060;17.226;2022-12-18T16:43:37;77;60;38
44871;PMS7003;30602;51.060;17.226;2022-12-18T16:47:40;47;35;20
44871;PMS7003;30602;51.060;17.226;2022-12-18T16:51:15;44;36;20
44871;PMS7003;30602;51.060;17.226;2022-12-18T16:55:27;43;36;22
44871;PMS7003;30602;51.060;17.226;2022-12-18T16:58:58;38;33;23
44871;PMS7003;30602;51.060;17.226;2022-12-18T17:02:44;32;30;19
44871;PMS7003;30602;51.060;17.226;2022-12-18T17:06:18;36;30;17
44871;PMS7003;30602;51.060;17.226;2022-12-18T17:10:05;47;32;19
44871;PMS7003;30602;51.060;17.226;2022-12-18T17:13:15;39;29;19
44871;PMS7003;30602;51.060;17.226;2022-12-18T17:17:03;37;24;14
44871;PMS7003;30602;51.060;17.226;2022-12-18T17:21:01;37;26;15
44871;PMS7003;30602;51.060;17.226;2022-12-18T17:24:20;37;28;17
44871;PMS7003;30602;51.060;17.226;2022-12-18T17:27:54;30;23;16
44871;PMS7003;30602;51.060;17.226;2022-12-18T17:34:34;51;34;21
44871;PMS7003;30602;51.060;17.226;2022-12-18T17:38:27;44;33;20
44871;PMS7003;30602;51.060;17.226;2022-12-18T17:42:32;64;44;25
44871;PMS7003;30602;51.060;17.226;2022-12-18T17:46:03;42;35;20
44871;PMS7003;30602;51.060;17.226;2022-12-18T17:50:16;54;39;25
44871;PMS7003;30602;51.060;17.226;2022-12-18T17:54:05;48;34;20
44871;PMS7003;30602;51.060;17.226;2022-12-18T17:57:45;56;40;23
44871;PMS7003;30602;51.060;17.226;2022-12-18T18:01:23;55;41;23
44871;PMS7003;30602;51.060;17.226;2022-12-18T18:04:42;61;43;26
44871;PMS7003;30602;51.060;17.226;2022-12-18T18:08:05;55;39;24
44871;PMS7003;30602;51.060;17.226;2022-12-18T18:11:39;51;39;23
44871;PMS7003;30602;51.060;17.226;2022-12-18T18:16:08;42;29;19
44871;PMS7003;30602;51.060;17.226;2022-12-18T18:19:45;57;36;22
44871;PMS7003;30602;51.060;17.226;2022-12-18T18:23:19;47;34;18
44871;PMS7003;30602;51.060;17.226;2022-12-18T18:26:58;49;37;22
44871;PMS7003;30602;51.060;17.226;2022-12-18T18:30:37;50;36;25
44871;PMS7003;30602;51.060;17.226;2022-12-18T18:34:14;58;42;26
44871;PMS7003;30602;51.060;17.226;2022-12-18T18:37:46;53;37;24
44871;PMS7003;30602;51.060;17.226;2022-12-18T18:41:40;58;44;25
44871;PMS7003;30602;51.060;17.226;2022-12-18T18:45:06;45;35;23
44871;PMS7003;30602;51.060;17.226;2022-12-18T18:48:37;48;38;23
44871;PMS7003;30602;51.060;17.226;2022-12-18T18:55:46;53;37;22
44871;PMS7003;30602;51.060;17.226;2022-12-18T18:59:29;57;45;28
44871;PMS7003;30602;51.060;17.226;2022-12-18T19:02:54;65;45;27
44871;PMS7003;30602;51.060;17.226;2022-12-18T19:06:05;54;41;26
44871;PMS7003;30602;51.060;17.226;2022-12-18T19:09:27;61;43;25
44871;PMS7003;30602;51.060;17.226;2022-12-18T19:12:49;61;44;27
44871;PMS7003;30602;51.060;17.226;2022-12-18T19:16:44;63;45;29
44871;PMS7003;30602;51.060;17.226;2022-12-18T19:20:32;66;50;32
44871;PMS7003;30602;51.060;17.226;2022-12-18T19:25:01;79;59;37
44871;PMS7003;30602;51.060;17.226;2022-12-18T19:28:49;81;59;37
44871;PMS7003;30602;51.060;17.226;2022-12-18T19:32:09;92;67;41
44871;PMS7003;30602;51.060;17.226;2022-12-18T19:35:58;97;70;42
44871;PMS7003;30602;51.060;17.226;2022-12-18T19:39:33;87;60;37
44871;PMS7003;30602;51.060;17.226;2022-12-18T19:43:06;83;60;36
44871;PMS7003;30602;51.060;17.226;2022-12-18T19:46:34;92;67;42
44871;PMS7003;30602;51.060;17.226;2022-12-18T19:51:03;91;66;37
44871;PMS7003;30602;51.060;17.226;2022-12-18T19:54:37;94;70;42
44871;PMS7003;30602;51.060;17.226;2022-12-18T19:58:01;95;72;43
44871;PMS7003;30602;51.060;17.226;2022-12-18T20:02:11;128;95;51
44871;PMS7003;30602;51.060;17.226;2022-12-18T20:10:05;100;70;40
44871;PMS7003;30602;51.060;17.226;2022-12-18T20:14:12;98;71;43
44871;PMS7003;30602;51.060;17.226;2022-12-18T20:17:56;102;74;46
44871;PMS7003;30602;51.060;17.226;2022-12-18T20:21:23;88;65;36
44871;PMS7003;30602;51.060;17.226;2022-12-18T20:24:39;95;66;40
44871;PMS7003;30602;51.060;17.226;2022-12-18T20:27:54;94;72;43
44871;PMS7003;30602;51.060;17.226;2022-12-18T20:31:44;93;69;42
44871;PMS7003;30602;51.060;17.226;2022-12-18T20:35:04;130;99;54
44871;PMS7003;30602;51.060;17.226;2022-12-18T20:38:42;101;71;44
44871;PMS7003;30602;51.060;17.226;2022-12-18T20:42:04;96;74;44
44871;PMS7003;30602;51.060;17.226;2022-12-18T20:45:35;86;63;39
44871;PMS7003;30602;51.060;17.226;2022-12-18T20:49:52;109;77;46
44871;PMS7003;30602;51.060;17.226;2022-12-18T20:53:35;93;69;43
44871;PMS7003;30602;51.060;17.226;2022-12-18T20:57:25;102;74;45
44871;PMS7003;30602;51.060;17.226;2022-12-18T21:01:05;100;75;45
44871;PMS7003;30602;51.060;17.226;2022-12-18T21:04:26;109;81;47
44871;PMS7003;30602;51.060;17.226;2022-12-18T21:07:56;90;67;41
44871;PMS7003;30602;51.060;17.226;2022-12-18T21:12:13;150;120;66
44871;PMS7003;30602;51.060;17.226;2022-12-18T21:16:42;107;79;47
44871;PMS7003;30602;51.060;17.226;2022-12-18T21:20:39;92;66;41
44871;PMS7003;30602;51.060;17.226;2022-12-18T21:24:14;89;66;41
44871;PMS7003;30602;51.060;17.226;2022-12-18T21:27:29;80;60;37
44871;PMS7003;30602;51.060;17.226;2022-12-18T21:31:25;89;65;40
44871;PMS7003;30602;51.060;17.226;2022-12-18T21:35:10;88;65;40
44871;PMS7003;30602;51.060;17.226;2022-12-18T21:38:22;84;61;36
44871;PMS7003;30602;51.060;17.226;2022-12-18T21:41:59;87;61;37
44871;PMS7003;30602;51.060;17.226;2022-12-18T21:45:59;87;63;38
44871;PMS7003;30602;51.060;17.226;2022-12-18T21:49:15;84;58;35
44871;PMS7003;30602;51.060;17.226;2022-12-18T21:53:36;84;60;38
44871;PMS7003;30602;51.060;17.226;2022-12-18T21:57:58;87;65;40
44871;PMS7003;30602;51.060;17.226;2022-12-18T22:05:06;77;58;37
44871;PMS7003;30602;51.060;17.226;2022-12-18T22:09:04;83;59;35
44871;PMS7003;30602;51.060;17.226;2022-12-18T22:13:28;75;57;34
44871;PMS7003;30602;51.060;17.226;2022-12-18T22:16:44;82;61;38
44871;PMS7003;30602;51.060;17.226;2022-12-18T22:20:18;82;58;36
44871;PMS7003;30602;51.060;17.226;2022-12-18T22:23:41;81;58;35
44871;PMS7003;30602;51.060;17.226;2022-12-18T22:27:05;79;56;34
44871;PMS7003;30602;51.060;17.226;2022-12-18T22:30:42;75;54;32
44871;PMS7003;30602;51.060;17.226;2022-12-18T22:34:31;76;58;35
44871;PMS7003;30602;51.060;17.226;2022-12-18T22:38:00;76;54;34
44871;PMS7003;30602;51.060;17.226;2022-12-18T22:41:12;82;57;32
44871;PMS7003;30602;51.060;17.226;2022-12-18T22:44:48;82;61;36
44871;PMS7003;30602;51.060;17.226;2022-12-18T22:48:21;78;55;35
44871;PMS7003;30602;51.060;17.226;2022-12-18T22:52:08;75;56;34
44871;PMS7003;30602;51.060;17.226;2022-12-18T22:55:21;84;62;36
44871;PMS7003;30602;51.060;17.226;2022-12-18T22:58:37;88;64;39
44871;PMS7003;30602;51.060;17.226;2022-12-18T23:02:39;90;64;39
44871;PMS7003;30602;51.060;17.226;2022-12-18T23:06:20;84;61;35
44871;PMS7003;30602;51.060;17.226;2022-12-18T23:10:14;95;68;41
44871;PMS7003;30602;51.060;17.226;2022-12-18T23:13:48;86;66;40
44871;PMS7003;30602;51.060;17.226;2022-12-18T23:16:59;88;64;39
44871;PMS7003;30602;51.060;17.226;2022-12-18T23:24:48;88;64;40
44871;PMS7003;30602;51.060;17.226;2022-12-18T23:28:34;90;65;39
44871;PMS7003;30602;51.060;17.226;2022-12-18T23:31:47;92;67;40
44871;PMS7003;30602;51.060;17.226;2022-12-18T23:35:02;78;57;35
44871;PMS7003;30602;51.060;17.226;2022-12-18T23:39:05;87;64;40
44871;PMS7003;30602;51.060;17.226;2022-12-18T23:42:52;95;71;43
44871;PMS7003;30602;51.060;17.226;2022-12-18T23:46:20;91;67;41
44871;PMS7003;30602;51.060;17.226;2022-12-18T23:50:12;94;68;41
44871;PMS7003;30602;51.060;17.226;2022-12-18T23:53:25;95;69;42
44871;PMS7003;30602;51.060;17.226;2022-12-18T23:56:54;92;65;41
